sensor_id;sensor_type;location;lat;lon;timestamp;P1;durP1;ratioP1;P2;durP2;ratioP2
19802;SDS011;66074;50.764;6.090;2023-06-14T00:01:41;0.82;;;0.60;;
19802;SDS011;66074;50.764;6.090;2023-06-14T00:04:10;0.40;;;0.40;;
19802;SDS011;66074;50.764;6.090;2023-06-14T00:06:41;1.15;;;0.50;;
19802;SDS011;66074;50.764;6.090;2023-06-14T00:09:10;0.65;;;0.57;;
19802;SDS011;66074;50.764;6.090;2023-06-14T00:11:38;0.50;;;0.50;;
19802;SDS011;66074;50.764;6.090;2023-06-14T00:14:04;0.47;;;0.47;;
19802;SDS011;66074;50.764;6.090;2023-06-14T00:16:30;0.80;;;0.68;;
19802;SDS011;66074;50.764;6.090;2023-06-14T00:18:57;1.13;;;0.70;;
19802;SDS011;66074;50.764;6.090;2023-06-14T00:21:23;1.25;;;0.75;;
19802;SDS011;66074;50.764;6.090;2023-06-14T00:23:49;0.57;;;0.57;;
19802;SDS011;66074;50.764;6.090;2023-06-14T00:26:14;1.20;;;0.47;;
19802;SDS011;66074;50.764;6.090;2023-06-14T00:28:43;0.75;;;0.75;;
19802;SDS011;66074;50.764;6.090;2023-06-14T00:31:08;1.40;;;1.30;;
19802;SDS011;66074;50.764;6.090;2023-06-14T00:33:34;1.15;;;0.68;;
19802;SDS011;66074;50.764;6.090;2023-06-14T00:36:00;0.47;;;0.43;;
19802;SDS011;66074;50.764;6.090;2023-06-14T00:38:25;0.40;;;0.40;;
19802;SDS011;66074;50.764;6.090;2023-06-14T00:40:51;0.43;;;0.28;;
19802;SDS011;66074;50.764;6.090;2023-06-14T00:43:16;0.77;;;0.52;;
19802;SDS011;66074;50.764;6.090;2023-06-14T00:45:42;0.43;;;0.43;;
19802;SDS011;66074;50.764;6.090;2023-06-14T00:48:08;1.05;;;0.50;;
19802;SDS011;66074;50.764;6.090;2023-06-14T00:50:35;0.50;;;0.50;;
19802;SDS011;66074;50.764;6.090;2023-06-14T00:53:01;1.25;;;1.10;;
19802;SDS011;66074;50.764;6.090;2023-06-14T00:55:28;1.48;;;1.02;;
19802;SDS011;66074;50.764;6.090;2023-06-14T00:57:54;0.60;;;0.60;;
19802;SDS011;66074;50.764;6.090;2023-06-14T01:00:20;0.80;;;0.80;;
19802;SDS011;66074;50.764;6.090;2023-06-14T01:02:46;1.90;;;0.82;;
19802;SDS011;66074;50.764;6.090;2023-06-14T01:05:12;1.05;;;0.70;;
19802;SDS011;66074;50.764;6.090;2023-06-14T01:10:31;0.57;;;0.52;;
19802;SDS011;66074;50.764;6.090;2023-06-14T01:15:46;0.50;;;0.50;;
19802;SDS011;66074;50.764;6.090;2023-06-14T01:18:13;0.40;;;0.40;;
19802;SDS011;66074;50.764;6.090;2023-06-14T01:20:45;1.50;;;1.15;;
19802;SDS011;66074;50.764;6.090;2023-06-14T01:23:15;0.65;;;0.63;;
19802;SDS011;66074;50.764;6.090;2023-06-14T01:25:42;1.17;;;1.08;;
19802;SDS011;66074;50.764;6.090;2023-06-14T01:28:10;1.40;;;0.95;;
19802;SDS011;66074;50.764;6.090;2023-06-14T01:30:38;1.10;;;1.00;;
19802;SDS011;66074;50.764;6.090;2023-06-14T01:33:10;0.40;;;0.40;;
19802;SDS011;66074;50.764;6.090;2023-06-14T01:35:44;0.65;;;0.65;;
19802;SDS011;66074;50.764;6.090;2023-06-14T01:38:12;0.57;;;0.57;;
19802;SDS011;66074;50.764;6.090;2023-06-14T01:40:39;0.57;;;0.52;;
19802;SDS011;66074;50.764;6.090;2023-06-14T01:43:05;0.68;;;0.43;;
19802;SDS011;66074;50.764;6.090;2023-06-14T01:45:32;0.75;;;0.70;;
19802;SDS011;66074;50.764;6.090;2023-06-14T01:47:59;0.50;;;0.47;;
19802;SDS011;66074;50.764;6.090;2023-06-14T01:50:31;0.77;;;0.52;;
19802;SDS011;66074;50.764;6.090;2023-06-14T01:52:57;0.50;;;0.47;;
19802;SDS011;66074;50.764;6.090;2023-06-14T01:55:23;1.02;;;0.60;;
19802;SDS011;66074;50.764;6.090;2023-06-14T01:57:50;1.00;;;0.88;;
19802;SDS011;66074;50.764;6.090;2023-06-14T02:00:19;0.75;;;0.68;;
19802;SDS011;66074;50.764;6.090;2023-06-14T02:02:46;0.82;;;0.63;;
19802;SDS011;66074;50.764;6.090;2023-06-14T02:05:12;0.80;;;0.75;;
19802;SDS011;66074;50.764;6.090;2023-06-14T02:07:38;1.25;;;0.68;;
19802;SDS011;66074;50.764;6.090;2023-06-14T02:10:04;1.00;;;0.85;;
19802;SDS011;66074;50.764;6.090;2023-06-14T02:12:30;2.78;;;0.63;;
19802;SDS011;66074;50.764;6.090;2023-06-14T02:14:55;0.77;;;0.55;;
19802;SDS011;66074;50.764;6.090;2023-06-14T02:17:21;1.02;;;0.50;;
19802;SDS011;66074;50.764;6.090;2023-06-14T02:19:47;0.50;;;0.50;;
19802;SDS011;66074;50.764;6.090;2023-06-14T02:22:13;0.60;;;0.57;;
19802;SDS011;66074;50.764;6.090;2023-06-14T02:24:40;0.40;;;0.40;;
19802;SDS011;66074;50.764;6.090;2023-06-14T02:27:07;1.10;;;0.63;;
19802;SDS011;66074;50.764;6.090;2023-06-14T02:29:35;0.35;;;0.35;;
19802;SDS011;66074;50.764;6.090;2023-06-14T02:32:00;0.65;;;0.60;;
19802;SDS011;66074;50.764;6.090;2023-06-14T02:34:26;0.52;;;0.52;;
19802;SDS011;66074;50.764;6.090;2023-06-14T02:36:52;1.02;;;0.82;;
19802;SDS011;66074;50.764;6.090;2023-06-14T02:39:17;1.45;;;0.65;;
19802;SDS011;66074;50.764;6.090;2023-06-14T02:41:45;0.50;;;0.40;;
19802;SDS011;66074;50.764;6.090;2023-06-14T02:44:12;0.40;;;0.40;;
19802;SDS011;66074;50.764;6.090;2023-06-14T02:46:38;0.88;;;0.68;;
19802;SDS011;66074;50.764;6.090;2023-06-14T02:49:04;3.70;;;0.95;;
19802;SDS011;66074;50.764;6.090;2023-06-14T02:51:30;0.60;;;0.60;;
19802;SDS011;66074;50.764;6.090;2023-06-14T02:53:56;0.52;;;0.50;;
19802;SDS011;66074;50.764;6.090;2023-06-14T02:56:21;1.20;;;0.77;;
19802;SDS011;66074;50.764;6.090;2023-06-14T02:58:47;3.75;;;1.80;;
19802;SDS011;66074;50.764;6.090;2023-06-14T03:01:16;4.50;;;0.63;;
19802;SDS011;66074;50.764;6.090;2023-06-14T03:03:43;0.70;;;0.70;;
19802;SDS011;66074;50.764;6.090;2023-06-14T03:06:08;0.55;;;0.55;;
19802;SDS011;66074;50.764;6.090;2023-06-14T03:08:37;1.83;;;1.10;;
19802;SDS011;66074;50.764;6.090;2023-06-14T03:11:04;1.08;;;0.77;;
19802;SDS011;66074;50.764;6.090;2023-06-14T03:13:32;1.05;;;0.88;;
19802;SDS011;66074;50.764;6.090;2023-06-14T03:16:02;1.45;;;0.80;;
19802;SDS011;66074;50.764;6.090;2023-06-14T03:18:29;1.10;;;0.88;;
19802;SDS011;66074;50.764;6.090;2023-06-14T03:20:56;1.52;;;0.90;;
19802;SDS011;66074;50.764;6.090;2023-06-14T03:23:23;1.85;;;1.33;;
19802;SDS011;66074;50.764;6.090;2023-06-14T03:25:50;1.65;;;1.13;;
19802;SDS011;66074;50.764;6.090;2023-06-14T03:28:16;1.48;;;1.05;;
19802;SDS011;66074;50.764;6.090;2023-06-14T03:30:42;1.73;;;1.17;;
19802;SDS011;66074;50.764;6.090;2023-06-14T03:33:07;1.05;;;0.80;;
19802;SDS011;66074;50.764;6.090;2023-06-14T03:35:33;2.72;;;1.70;;
19802;SDS011;66074;50.764;6.090;2023-06-14T03:37:59;1.00;;;0.90;;
19802;SDS011;66074;50.764;6.090;2023-06-14T03:40:25;1.58;;;0.98;;
19802;SDS011;66074;50.764;6.090;2023-06-14T03:42:53;1.30;;;0.80;;
19802;SDS011;66074;50.764;6.090;2023-06-14T03:45:19;2.67;;;1.38;;
19802;SDS011;66074;50.764;6.090;2023-06-14T03:47:44;8.73;;;1.90;;
19802;SDS011;66074;50.764;6.090;2023-06-14T03:50:10;1.20;;;1.02;;
19802;SDS011;66074;50.764;6.090;2023-06-14T03:52:36;4.20;;;1.80;;
19802;SDS011;66074;50.764;6.090;2023-06-14T03:55:02;3.17;;;1.50;;
19802;SDS011;66074;50.764;6.090;2023-06-14T03:57:27;1.52;;;1.38;;
19802;SDS011;66074;50.764;6.090;2023-06-14T03:59:54;2.85;;;1.30;;
19802;SDS011;66074;50.764;6.090;2023-06-14T04:02:20;1.70;;;1.27;;
19802;SDS011;66074;50.764;6.090;2023-06-14T04:04:45;1.15;;;0.73;;
19802;SDS011;66074;50.764;6.090;2023-06-14T04:07:11;2.63;;;1.38;;
19802;SDS011;66074;50.764;6.090;2023-06-14T04:09:38;2.17;;;1.48;;
19802;SDS011;66074;50.764;6.090;2023-06-14T04:12:04;4.32;;;1.98;;
19802;SDS011;66074;50.764;6.090;2023-06-14T04:14:31;1.45;;;1.35;;
19802;SDS011;66074;50.764;6.090;2023-06-14T04:16:57;2.47;;;0.80;;
19802;SDS011;66074;50.764;6.090;2023-06-14T04:19:23;0.85;;;0.85;;
19802;SDS011;66074;50.764;6.090;2023-06-14T04:21:49;0.82;;;0.82;;
19802;SDS011;66074;50.764;6.090;2023-06-14T04:24:15;1.60;;;0.82;;
19802;SDS011;66074;50.764;6.090;2023-06-14T04:26:41;0.77;;;0.77;;
19802;SDS011;66074;50.764;6.090;2023-06-14T04:29:09;1.15;;;1.05;;
19802;SDS011;66074;50.764;6.090;2023-06-14T04:31:45;1.08;;;0.90;;
19802;SDS011;66074;50.764;6.090;2023-06-14T04:34:11;1.15;;;0.88;;
19802;SDS011;66074;50.764;6.090;2023-06-14T04:36:41;2.88;;;1.02;;
19802;SDS011;66074;50.764;6.090;2023-06-14T04:39:16;2.08;;;1.13;;
19802;SDS011;66074;50.764;6.090;2023-06-14T04:41:42;1.75;;;1.13;;
19802;SDS011;66074;50.764;6.090;2023-06-14T04:44:09;0.70;;;0.70;;
19802;SDS011;66074;50.764;6.090;2023-06-14T04:46:35;0.90;;;0.63;;
19802;SDS011;66074;50.764;6.090;2023-06-14T04:49:20;0.43;;;0.40;;
19802;SDS011;66074;50.764;6.090;2023-06-14T04:51:45;1.05;;;0.98;;
19802;SDS011;66074;50.764;6.090;2023-06-14T04:54:12;1.05;;;0.90;;
19802;SDS011;66074;50.764;6.090;2023-06-14T04:56:41;1.35;;;1.25;;
19802;SDS011;66074;50.764;6.090;2023-06-14T04:59:13;1.65;;;1.55;;
19802;SDS011;66074;50.764;6.090;2023-06-14T05:01:39;1.65;;;1.55;;
19802;SDS011;66074;50.764;6.090;2023-06-14T05:04:06;2.13;;;1.95;;
19802;SDS011;66074;50.764;6.090;2023-06-14T05:06:31;2.10;;;1.30;;
19802;SDS011;66074;50.764;6.090;2023-06-14T05:08:57;1.20;;;0.90;;
19802;SDS011;66074;50.764;6.090;2023-06-14T05:11:23;0.82;;;0.63;;
19802;SDS011;66074;50.764;6.090;2023-06-14T05:13:49;0.77;;;0.77;;
19802;SDS011;66074;50.764;6.090;2023-06-14T05:16:16;1.33;;;0.50;;
19802;SDS011;66074;50.764;6.090;2023-06-14T05:18:44;1.20;;;0.68;;
19802;SDS011;66074;50.764;6.090;2023-06-14T05:21:10;0.80;;;0.65;;
19802;SDS011;66074;50.764;6.090;2023-06-14T05:23:36;0.50;;;0.50;;
19802;SDS011;66074;50.764;6.090;2023-06-14T05:26:02;0.70;;;0.68;;
19802;SDS011;66074;50.764;6.090;2023-06-14T05:28:29;1.00;;;0.90;;
19802;SDS011;66074;50.764;6.090;2023-06-14T05:30:55;1.73;;;1.17;;
19802;SDS011;66074;50.764;6.090;2023-06-14T05:33:21;1.30;;;0.98;;
19802;SDS011;66074;50.764;6.090;2023-06-14T05:35:50;1.33;;;1.10;;
19802;SDS011;66074;50.764;6.090;2023-06-14T05:39:13;0.80;;;0.70;;
19802;SDS011;66074;50.764;6.090;2023-06-14T05:41:49;0.43;;;0.43;;
19802;SDS011;66074;50.764;6.090;2023-06-14T05:44:15;0.80;;;0.80;;
19802;SDS011;66074;50.764;6.090;2023-06-14T05:46:40;0.40;;;0.40;;
19802;SDS011;66074;50.764;6.090;2023-06-14T05:49:06;1.08;;;0.90;;
19802;SDS011;66074;50.764;6.090;2023-06-14T05:51:32;0.50;;;0.50;;
19802;SDS011;66074;50.764;6.090;2023-06-14T05:53:58;0.95;;;0.88;;
19802;SDS011;66074;50.764;6.090;2023-06-14T05:56:27;0.55;;;0.40;;
19802;SDS011;66074;50.764;6.090;2023-06-14T05:58:53;0.70;;;0.60;;
19802;SDS011;66074;50.764;6.090;2023-06-14T06:01:19;0.40;;;0.40;;
19802;SDS011;66074;50.764;6.090;2023-06-14T06:03:45;3.50;;;0.93;;
19802;SDS011;66074;50.764;6.090;2023-06-14T06:06:11;1.05;;;0.88;;
19802;SDS011;66074;50.764;6.090;2023-06-14T06:08:37;2.47;;;1.13;;
19802;SDS011;66074;50.764;6.090;2023-06-14T06:11:03;0.70;;;0.70;;
19802;SDS011;66074;50.764;6.090;2023-06-14T06:13:29;0.30;;;0.30;;
19802;SDS011;66074;50.764;6.090;2023-06-14T06:16:20;1.35;;;0.90;;
19802;SDS011;66074;50.764;6.090;2023-06-14T06:18:45;0.50;;;0.35;;
19802;SDS011;66074;50.764;6.090;2023-06-14T06:21:13;0.70;;;0.68;;
19802;SDS011;66074;50.764;6.090;2023-06-14T06:23:40;0.30;;;0.30;;
19802;SDS011;66074;50.764;6.090;2023-06-14T06:26:06;0.55;;;0.55;;
19802;SDS011;66074;50.764;6.090;2023-06-14T06:28:32;0.80;;;0.60;;
19802;SDS011;66074;50.764;6.090;2023-06-14T06:30:57;0.77;;;0.68;;
19802;SDS011;66074;50.764;6.090;2023-06-14T06:33:23;2.17;;;0.80;;
19802;SDS011;66074;50.764;6.090;2023-06-14T06:35:49;0.50;;;0.50;;
19802;SDS011;66074;50.764;6.090;2023-06-14T06:38:14;1.15;;;0.93;;
19802;SDS011;66074;50.764;6.090;2023-06-14T06:40:40;1.00;;;0.75;;
19802;SDS011;66074;50.764;6.090;2023-06-14T06:43:06;1.20;;;0.90;;
19802;SDS011;66074;50.764;6.090;2023-06-14T06:45:31;7.45;;;0.80;;
19802;SDS011;66074;50.764;6.090;2023-06-14T06:47:58;0.68;;;0.68;;
19802;SDS011;66074;50.764;6.090;2023-06-14T06:50:23;0.45;;;0.45;;
19802;SDS011;66074;50.764;6.090;2023-06-14T06:52:49;0.60;;;0.60;;
19802;SDS011;66074;50.764;6.090;2023-06-14T06:55:16;3.00;;;0.60;;
19802;SDS011;66074;50.764;6.090;2023-06-14T06:57:43;0.40;;;0.38;;
19802;SDS011;66074;50.764;6.090;2023-06-14T07:00:09;0.80;;;0.47;;
19802;SDS011;66074;50.764;6.090;2023-06-14T07:02:35;0.28;;;0.28;;
19802;SDS011;66074;50.764;6.090;2023-06-14T07:05:01;1.02;;;0.60;;
19802;SDS011;66074;50.764;6.090;2023-06-14T07:07:27;3.72;;;1.33;;
19802;SDS011;66074;50.764;6.090;2023-06-14T07:09:53;0.35;;;0.30;;
19802;SDS011;66074;50.764;6.090;2023-06-14T07:12:19;0.40;;;0.40;;
19802;SDS011;66074;50.764;6.090;2023-06-14T07:14:44;0.55;;;0.38;;
19802;SDS011;66074;50.764;6.090;2023-06-14T07:17:10;2.55;;;0.50;;
19802;SDS011;66074;50.764;6.090;2023-06-14T07:19:36;0.30;;;0.30;;
19802;SDS011;66074;50.764;6.090;2023-06-14T07:22:01;0.47;;;0.47;;
19802;SDS011;66074;50.764;6.090;2023-06-14T07:24:27;0.50;;;0.50;;
19802;SDS011;66074;50.764;6.090;2023-06-14T07:26:53;0.93;;;0.50;;
19802;SDS011;66074;50.764;6.090;2023-06-14T07:29:19;1.67;;;1.13;;
19802;SDS011;66074;50.764;6.090;2023-06-14T07:31:46;3.50;;;1.48;;
19802;SDS011;66074;50.764;6.090;2023-06-14T07:34:13;0.68;;;0.40;;
19802;SDS011;66074;50.764;6.090;2023-06-14T07:36:38;0.77;;;0.52;;
19802;SDS011;66074;50.764;6.090;2023-06-14T07:39:04;0.40;;;0.40;;
19802;SDS011;66074;50.764;6.090;2023-06-14T07:41:31;1.05;;;0.57;;
19802;SDS011;66074;50.764;6.090;2023-06-14T07:43:57;3.20;;;0.77;;
19802;SDS011;66074;50.764;6.090;2023-06-14T07:46:23;0.40;;;0.40;;
19802;SDS011;66074;50.764;6.090;2023-06-14T07:48:49;0.52;;;0.52;;
19802;SDS011;66074;50.764;6.090;2023-06-14T07:51:14;1.38;;;0.50;;
19802;SDS011;66074;50.764;6.090;2023-06-14T07:53:40;0.40;;;0.40;;
19802;SDS011;66074;50.764;6.090;2023-06-14T07:56:08;0.50;;;0.43;;
19802;SDS011;66074;50.764;6.090;2023-06-14T07:58:34;0.90;;;0.80;;
19802;SDS011;66074;50.764;6.090;2023-06-14T08:00:59;1.35;;;0.80;;
19802;SDS011;66074;50.764;6.090;2023-06-14T08:03:28;0.80;;;0.43;;
19802;SDS011;66074;50.764;6.090;2023-06-14T08:05:55;0.32;;;0.32;;
19802;SDS011;66074;50.764;6.090;2023-06-14T08:08:20;0.85;;;0.47;;
19802;SDS011;66074;50.764;6.090;2023-06-14T08:10:46;0.30;;;0.30;;
19802;SDS011;66074;50.764;6.090;2023-06-14T08:13:12;1.00;;;0.40;;
19802;SDS011;66074;50.764;6.090;2023-06-14T08:15:38;0.30;;;0.30;;
19802;SDS011;66074;50.764;6.090;2023-06-14T08:18:03;0.43;;;0.43;;
19802;SDS011;66074;50.764;6.090;2023-06-14T08:20:29;0.57;;;0.57;;
19802;SDS011;66074;50.764;6.090;2023-06-14T08:22:56;0.30;;;0.20;;
19802;SDS011;66074;50.764;6.090;2023-06-14T08:25:23;0.75;;;0.45;;
19802;SDS011;66074;50.764;6.090;2023-06-14T08:27:48;0.52;;;0.38;;
19802;SDS011;66074;50.764;6.090;2023-06-14T08:30:15;0.30;;;0.30;;
19802;SDS011;66074;50.764;6.090;2023-06-14T08:32:42;2.90;;;1.00;;
19802;SDS011;66074;50.764;6.090;2023-06-14T08:35:08;3.28;;;1.10;;
19802;SDS011;66074;50.764;6.090;2023-06-14T08:37:37;0.80;;;0.47;;
19802;SDS011;66074;50.764;6.090;2023-06-14T08:40:06;1.45;;;1.02;;
19802;SDS011;66074;50.764;6.090;2023-06-14T08:42:42;1.17;;;0.68;;
19802;SDS011;66074;50.764;6.090;2023-06-14T08:45:08;0.10;;;0.10;;
19802;SDS011;66074;50.764;6.090;2023-06-14T08:47:34;0.63;;;0.47;;
19802;SDS011;66074;50.764;6.090;2023-06-14T08:50:01;0.57;;;0.20;;
19802;SDS011;66074;50.764;6.090;2023-06-14T08:52:29;2.08;;;0.32;;
19802;SDS011;66074;50.764;6.090;2023-06-14T08:55:05;0.65;;;0.20;;
19802;SDS011;66074;50.764;6.090;2023-06-14T08:57:33;0.95;;;0.55;;
19802;SDS011;66074;50.764;6.090;2023-06-14T09:00:02;0.93;;;0.20;;
19802;SDS011;66074;50.764;6.090;2023-06-14T09:02:38;0.55;;;0.38;;
19802;SDS011;66074;50.764;6.090;2023-06-14T09:05:09;0.40;;;0.38;;
19802;SDS011;66074;50.764;6.090;2023-06-14T09:07:36;0.40;;;0.38;;
19802;SDS011;66074;50.764;6.090;2023-06-14T09:10:21;0.57;;;0.43;;
19802;SDS011;66074;50.764;6.090;2023-06-14T09:12:47;0.88;;;0.30;;
19802;SDS011;66074;50.764;6.090;2023-06-14T09:15:13;0.65;;;0.35;;
19802;SDS011;66074;50.764;6.090;2023-06-14T09:17:39;0.28;;;0.28;;
19802;SDS011;66074;50.764;6.090;2023-06-14T09:20:06;0.55;;;0.40;;
19802;SDS011;66074;50.764;6.090;2023-06-14T09:22:36;0.70;;;0.57;;
19802;SDS011;66074;50.764;6.090;2023-06-14T09:25:03;0.88;;;0.60;;
19802;SDS011;66074;50.764;6.090;2023-06-14T09:27:30;1.50;;;0.65;;
19802;SDS011;66074;50.764;6.090;2023-06-14T09:29:56;1.17;;;0.70;;
19802;SDS011;66074;50.764;6.090;2023-06-14T09:32:22;0.30;;;0.30;;
19802;SDS011;66074;50.764;6.090;2023-06-14T09:34:48;0.52;;;0.40;;
19802;SDS011;66074;50.764;6.090;2023-06-14T09:37:29;0.65;;;0.43;;
19802;SDS011;66074;50.764;6.090;2023-06-14T09:39:56;0.63;;;0.60;;
19802;SDS011;66074;50.764;6.090;2023-06-14T09:42:22;0.40;;;0.30;;
19802;SDS011;66074;50.764;6.090;2023-06-14T09:44:50;1.40;;;0.73;;
19802;SDS011;66074;50.764;6.090;2023-06-14T09:47:19;0.85;;;0.43;;
19802;SDS011;66074;50.764;6.090;2023-06-14T09:49:45;3.20;;;0.95;;
19802;SDS011;66074;50.764;6.090;2023-06-14T09:52:13;0.25;;;0.20;;
19802;SDS011;66074;50.764;6.090;2023-06-14T09:54:43;0.80;;;0.50;;
19802;SDS011;66074;50.764;6.090;2023-06-14T09:57:21;0.50;;;0.50;;
19802;SDS011;66074;50.764;6.090;2023-06-14T09:59:48;2.90;;;0.40;;
19802;SDS011;66074;50.764;6.090;2023-06-14T10:02:31;0.60;;;0.55;;
19802;SDS011;66074;50.764;6.090;2023-06-14T10:07:30;0.15;;;0.10;;
19802;SDS011;66074;50.764;6.090;2023-06-14T10:10:00;0.55;;;0.55;;
19802;SDS011;66074;50.764;6.090;2023-06-14T10:12:26;0.50;;;0.40;;
19802;SDS011;66074;50.764;6.090;2023-06-14T10:14:52;1.95;;;0.65;;
19802;SDS011;66074;50.764;6.090;2023-06-14T10:17:40;0.40;;;0.38;;
19802;SDS011;66074;50.764;6.090;2023-06-14T10:20:42;0.95;;;0.60;;
19802;SDS011;66074;50.764;6.090;2023-06-14T10:23:17;0.30;;;0.30;;
19802;SDS011;66074;50.764;6.090;2023-06-14T10:25:49;0.30;;;0.30;;
19802;SDS011;66074;50.764;6.090;2023-06-14T10:28:16;0.20;;;0.20;;
19802;SDS011;66074;50.764;6.090;2023-06-14T10:33:36;2.83;;;0.28;;
19802;SDS011;66074;50.764;6.090;2023-06-14T10:41:42;0.30;;;0.30;;
19802;SDS011;66074;50.764;6.090;2023-06-14T10:46:45;0.10;;;0.10;;
19802;SDS011;66074;50.764;6.090;2023-06-14T10:49:17;0.95;;;0.57;;
19802;SDS011;66074;50.764;6.090;2023-06-14T10:52:06;0.30;;;0.30;;
19802;SDS011;66074;50.764;6.090;2023-06-14T10:55:01;0.30;;;0.30;;
19802;SDS011;66074;50.764;6.090;2023-06-14T10:57:49;0.10;;;0.10;;
19802;SDS011;66074;50.764;6.090;2023-06-14T11:00:20;0.50;;;0.30;;
19802;SDS011;66074;50.764;6.090;2023-06-14T11:11:21;0.30;;;0.30;;
19802;SDS011;66074;50.764;6.090;2023-06-14T11:13:48;0.25;;;0.25;;
19802;SDS011;66074;50.764;6.090;2023-06-14T11:16:16;0.20;;;0.20;;
19802;SDS011;66074;50.764;6.090;2023-06-14T11:18:43;0.17;;;0.17;;
19802;SDS011;66074;50.764;6.090;2023-06-14T11:21:09;0.28;;;0.20;;
19802;SDS011;66074;50.764;6.090;2023-06-14T11:23:35;0.13;;;0.13;;
19802;SDS011;66074;50.764;6.090;2023-06-14T11:26:01;0.38;;;0.28;;
19802;SDS011;66074;50.764;6.090;2023-06-14T11:28:38;0.20;;;0.17;;
19802;SDS011;66074;50.764;6.090;2023-06-14T11:31:05;0.25;;;0.25;;
19802;SDS011;66074;50.764;6.090;2023-06-14T11:33:31;0.20;;;0.20;;
19802;SDS011;66074;50.764;6.090;2023-06-14T11:35:57;0.30;;;0.30;;
19802;SDS011;66074;50.764;6.090;2023-06-14T11:38:23;0.00;;;0.00;;
19802;SDS011;66074;50.764;6.090;2023-06-14T11:40:49;0.20;;;0.20;;
19802;SDS011;66074;50.764;6.090;2023-06-14T11:43:15;0.40;;;0.10;;
19802;SDS011;66074;50.764;6.090;2023-06-14T11:45:42;0.10;;;0.10;;
19802;SDS011;66074;50.764;6.090;2023-06-14T11:48:07;0.32;;;0.30;;
19802;SDS011;66074;50.764;6.090;2023-06-14T11:50:33;0.10;;;0.10;;
19802;SDS011;66074;50.764;6.090;2023-06-14T11:53:03;0.10;;;0.10;;
19802;SDS011;66074;50.764;6.090;2023-06-14T11:55:35;0.25;;;0.15;;
19802;SDS011;66074;50.764;6.090;2023-06-14T11:58:05;0.55;;;0.30;;
19802;SDS011;66074;50.764;6.090;2023-06-14T12:00:31;0.30;;;0.30;;
19802;SDS011;66074;50.764;6.090;2023-06-14T12:02:57;0.85;;;0.30;;
19802;SDS011;66074;50.764;6.090;2023-06-14T12:05:23;0.10;;;0.10;;
19802;SDS011;66074;50.764;6.090;2023-06-14T12:07:51;0.00;;;0.00;;
19802;SDS011;66074;50.764;6.090;2023-06-14T12:10:25;0.52;;;0.30;;
19802;SDS011;66074;50.764;6.090;2023-06-14T12:12:51;0.30;;;0.22;;
19802;SDS011;66074;50.764;6.090;2023-06-14T12:15:23;0.52;;;0.28;;
19802;SDS011;66074;50.764;6.090;2023-06-14T12:17:48;0.73;;;0.73;;
19802;SDS011;66074;50.764;6.090;2023-06-14T12:20:15;0.17;;;0.17;;
19802;SDS011;66074;50.764;6.090;2023-06-14T12:22:54;0.63;;;0.52;;
19802;SDS011;66074;50.764;6.090;2023-06-14T12:25:28;0.38;;;0.30;;
19802;SDS011;66074;50.764;6.090;2023-06-14T12:27:58;0.10;;;0.10;;
19802;SDS011;66074;50.764;6.090;2023-06-14T12:30:28;0.35;;;0.30;;
19802;SDS011;66074;50.764;6.090;2023-06-14T12:32:54;0.43;;;0.30;;
19802;SDS011;66074;50.764;6.090;2023-06-14T12:35:19;0.20;;;0.20;;
19802;SDS011;66074;50.764;6.090;2023-06-14T12:37:45;0.20;;;0.20;;
19802;SDS011;66074;50.764;6.090;2023-06-14T12:40:11;0.32;;;0.32;;
19802;SDS011;66074;50.764;6.090;2023-06-14T12:42:37;0.57;;;0.30;;
19802;SDS011;66074;50.764;6.090;2023-06-14T12:45:03;1.17;;;0.25;;
19802;SDS011;66074;50.764;6.090;2023-06-14T12:47:29;0.20;;;0.15;;
19802;SDS011;66074;50.764;6.090;2023-06-14T12:49:55;0.30;;;0.30;;
19802;SDS011;66074;50.764;6.090;2023-06-14T12:52:21;0.60;;;0.20;;
19802;SDS011;66074;50.764;6.090;2023-06-14T12:54:46;0.35;;;0.28;;
19802;SDS011;66074;50.764;6.090;2023-06-14T12:57:12;0.50;;;0.30;;
19802;SDS011;66074;50.764;6.090;2023-06-14T12:59:40;2.33;;;0.45;;
19802;SDS011;66074;50.764;6.090;2023-06-14T13:02:13;0.20;;;0.20;;
19802;SDS011;66074;50.764;6.090;2023-06-14T13:04:43;0.73;;;0.20;;
19802;SDS011;66074;50.764;6.090;2023-06-14T13:07:09;0.50;;;0.10;;
19802;SDS011;66074;50.764;6.090;2023-06-14T13:09:35;0.32;;;0.10;;
19802;SDS011;66074;50.764;6.090;2023-06-14T13:12:01;1.75;;;0.90;;
19802;SDS011;66074;50.764;6.090;2023-06-14T13:14:28;0.25;;;0.20;;
19802;SDS011;66074;50.764;6.090;2023-06-14T13:16:54;0.10;;;0.10;;
19802;SDS011;66074;50.764;6.090;2023-06-14T13:19:20;0.20;;;0.20;;
19802;SDS011;66074;50.764;6.090;2023-06-14T13:21:46;1.45;;;0.65;;
19802;SDS011;66074;50.764;6.090;2023-06-14T13:24:12;0.10;;;0.10;;
19802;SDS011;66074;50.764;6.090;2023-06-14T13:26:38;0.00;;;0.00;;
19802;SDS011;66074;50.764;6.090;2023-06-14T13:29:03;0.05;;;0.05;;
19802;SDS011;66074;50.764;6.090;2023-06-14T13:31:29;0.20;;;0.20;;
19802;SDS011;66074;50.764;6.090;2023-06-14T13:33:55;0.00;;;0.00;;
19802;SDS011;66074;50.764;6.090;2023-06-14T13:36:27;0.10;;;0.10;;
19802;SDS011;66074;50.764;6.090;2023-06-14T13:38:52;0.20;;;0.13;;
19802;SDS011;66074;50.764;6.090;2023-06-14T13:41:20;1.00;;;0.20;;
19802;SDS011;66074;50.764;6.090;2023-06-14T13:43:45;0.03;;;0.03;;
19802;SDS011;66074;50.764;6.090;2023-06-14T13:46:11;1.90;;;0.43;;
19802;SDS011;66074;50.764;6.090;2023-06-14T13:48:37;0.82;;;0.50;;
19802;SDS011;66074;50.764;6.090;2023-06-14T13:51:02;0.38;;;0.30;;
19802;SDS011;66074;50.764;6.090;2023-06-14T13:53:29;0.30;;;0.30;;
19802;SDS011;66074;50.764;6.090;2023-06-14T13:55:55;0.10;;;0.10;;
19802;SDS011;66074;50.764;6.090;2023-06-14T13:58:20;0.40;;;0.35;;
19802;SDS011;66074;50.764;6.090;2023-06-14T14:00:46;0.20;;;0.20;;
19802;SDS011;66074;50.764;6.090;2023-06-14T14:03:12;0.08;;;0.08;;
19802;SDS011;66074;50.764;6.090;2023-06-14T14:05:38;0.43;;;0.43;;
19802;SDS011;66074;50.764;6.090;2023-06-14T14:08:03;1.30;;;0.20;;
19802;SDS011;66074;50.764;6.090;2023-06-14T14:10:29;0.17;;;0.15;;
19802;SDS011;66074;50.764;6.090;2023-06-14T14:12:55;0.15;;;0.15;;
19802;SDS011;66074;50.764;6.090;2023-06-14T14:15:21;0.22;;;0.10;;
19802;SDS011;66074;50.764;6.090;2023-06-14T14:17:47;0.15;;;0.10;;
19802;SDS011;66074;50.764;6.090;2023-06-14T14:20:13;0.47;;;0.40;;
19802;SDS011;66074;50.764;6.090;2023-06-14T14:22:41;0.05;;;0.05;;
19802;SDS011;66074;50.764;6.090;2023-06-14T14:25:08;0.60;;;0.40;;
19802;SDS011;66074;50.764;6.090;2023-06-14T14:27:34;0.25;;;0.20;;
19802;SDS011;66074;50.764;6.090;2023-06-14T14:29:59;0.20;;;0.20;;
19802;SDS011;66074;50.764;6.090;2023-06-14T14:32:25;0.70;;;0.30;;
19802;SDS011;66074;50.764;6.090;2023-06-14T14:34:51;0.30;;;0.30;;
19802;SDS011;66074;50.764;6.090;2023-06-14T14:37:16;4.95;;;0.50;;
19802;SDS011;66074;50.764;6.090;2023-06-14T14:39:43;0.50;;;0.30;;
19802;SDS011;66074;50.764;6.090;2023-06-14T14:42:10;0.20;;;0.20;;
19802;SDS011;66074;50.764;6.090;2023-06-14T14:44:37;6.65;;;0.93;;
19802;SDS011;66074;50.764;6.090;2023-06-14T14:47:03;1.30;;;0.55;;
19802;SDS011;66074;50.764;6.090;2023-06-14T14:49:30;0.13;;;0.10;;
19802;SDS011;66074;50.764;6.090;2023-06-14T14:51:57;0.45;;;0.25;;
19802;SDS011;66074;50.764;6.090;2023-06-14T14:54:23;0.75;;;0.20;;
19802;SDS011;66074;50.764;6.090;2023-06-14T14:56:50;0.70;;;0.30;;
19802;SDS011;66074;50.764;6.090;2023-06-14T14:59:25;0.20;;;0.10;;
19802;SDS011;66074;50.764;6.090;2023-06-14T15:01:51;0.20;;;0.20;;
19802;SDS011;66074;50.764;6.090;2023-06-14T15:04:17;0.38;;;0.38;;
19802;SDS011;66074;50.764;6.090;2023-06-14T15:06:43;0.30;;;0.22;;
19802;SDS011;66074;50.764;6.090;2023-06-14T15:09:08;0.63;;;0.55;;
19802;SDS011;66074;50.764;6.090;2023-06-14T15:11:34;0.40;;;0.35;;
19802;SDS011;66074;50.764;6.090;2023-06-14T15:14:04;0.13;;;0.10;;
19802;SDS011;66074;50.764;6.090;2023-06-14T15:16:33;0.93;;;0.40;;
19802;SDS011;66074;50.764;6.090;2023-06-14T15:18:59;0.10;;;0.10;;